»·PEaware :: N875ZE KBXK-KCHD

N875ZE :: KBXK-KCHD

FLIGHT INFORMATION

Flight Status: Arrived
Operator: Privately registered:
United States
More flights under this callsign
Pilot: Zachary E. (14750)
Aircraft: CESSNA 172 SKYHAWK
(C172)
More flights by this aircraft type
Origin: KBXK Buckeye Mun
United States
Destination: KCHD Chandler Mun
United States
More flights between these airports :: More routes between these airports
Route:
File this flight plan on PilotEdge
Remarks:
Altitude:
(Current/Filed)
5,500ft
Speed:
(Current/Filed)
105kts
Departed: 25-Sep-20 06:59 AM
Arrived: 25-Sep-20 07:39 AM
Distance/Time
Traveled:
45nm/0:39
Distance/Time
To Go:
Arrived

Flight Plot

Page will automatically refresh every two minutes.

Flight plan parsing failed; only flown route is shown


Map Options




Map Legend


Flown Route
Filed Route
Departure Airport
Arrival Airport
Navaid (VOR, NDB)
Fix

Horizontal Profiles

Position Reports

Time Latitude Longitude Heading Altitude Ground
Speed
25-Sep-20 06:43 33.419842 -112.683625 83 1011ft 0kts
25-Sep-20 06:44 33.419842 -112.683625 83 1011ft 0kts
25-Sep-20 06:45 33.419842 -112.683625 83 1011ft 0kts
25-Sep-20 06:46 33.419842 -112.683625 83 1011ft 0kts
25-Sep-20 06:47 33.419842 -112.683625 83 1011ft 0kts
25-Sep-20 06:48 33.419842 -112.683625 83 1011ft 0kts
25-Sep-20 06:49 33.419842 -112.683625 83 1011ft 0kts
25-Sep-20 06:50 33.419842 -112.683625 83 1011ft 0kts
25-Sep-20 06:51 33.419842 -112.683625 83 1011ft 0kts
25-Sep-20 06:52 33.420242 -112.683911 297 1012ft 3kts
25-Sep-20 06:53 33.419008 -112.685079 183 1009ft 19kts
25-Sep-20 06:54 33.415013 -112.685184 279 999ft 0kts
25-Sep-20 06:55 33.415013 -112.685184 279 999ft 0kts
25-Sep-20 06:56 33.415013 -112.685184 279 999ft 0kts
25-Sep-20 06:57 33.415136 -112.685512 259 999ft 5kts
25-Sep-20 06:58 33.418306 -112.686407 1 1005ft 61kts
25-Sep-20 06:59 33.439320 -112.686616 358 1683ft 77kts
25-Sep-20 07:00 33.450082 -112.703009 262 2420ft 85kts
25-Sep-20 07:01 33.448382 -112.731282 279 3125ft 85kts
25-Sep-20 07:02 33.452951 -112.759155 280 3773ft 87kts
25-Sep-20 07:03 33.452079 -112.787471 267 4415ft 85kts
25-Sep-20 07:04 33.453293 -112.815566 265 5048ft 83kts
25-Sep-20 07:05 33.443302 -112.838024 188 5504ft 98kts
25-Sep-20 07:06 33.426206 -112.810096 109 5504ft 113kts
25-Sep-20 07:07 33.419487 -112.773053 97 5533ft 114kts
25-Sep-20 07:08 33.405564 -112.738981 118 5526ft 114kts
25-Sep-20 07:09 33.391963 -112.704519 107 5431ft 114kts
25-Sep-20 07:10 33.389531 -112.666383 91 5553ft 113kts
25-Sep-20 07:11 33.375365 -112.636770 153 5536ft 111kts
25-Sep-20 07:12 33.351305 -112.614348 118 5462ft 113kts
25-Sep-20 07:13 33.336489 -112.581376 119 5457ft 110kts
25-Sep-20 07:14 33.322658 -112.548222 117 5518ft 108kts
25-Sep-20 07:15 33.310540 -112.514802 96 5532ft 102kts
25-Sep-20 07:16 33.315014 -112.479352 77 4759ft 107kts
25-Sep-20 07:17 33.321794 -112.444937 77 4073ft 104kts
25-Sep-20 07:18 33.329656 -112.411201 74 3498ft 110kts
25-Sep-20 07:19 33.339368 -112.376834 62 3483ft 109kts
25-Sep-20 07:20 33.354555 -112.345565 74 3481ft 108kts
25-Sep-20 07:21 33.342511 -112.313709 118 3504ft 107kts
25-Sep-20 07:22 33.329341 -112.281211 113 3510ft 108kts
25-Sep-20 07:23 33.315134 -112.249419 123 3542ft 108kts
25-Sep-20 07:24 33.296957 -112.220816 126 3577ft 107kts
25-Sep-20 07:25 33.293033 -112.185373 91 3522ft 111kts
25-Sep-20 07:27 33.292718 -112.148607 86 3508ft 110kts
25-Sep-20 07:28 33.290587 -112.112226 93 3505ft 109kts
25-Sep-20 07:29 33.289286 -112.076255 90 3538ft 108kts
25-Sep-20 07:30 33.289298 -112.040184 92 3541ft 110kts
25-Sep-20 07:31 33.284802 -112.003783 101 3473ft 112kts
25-Sep-20 07:32 33.279975 -111.968836 97 3520ft 91kts
25-Sep-20 07:33 33.277256 -111.938220 94 3459ft 92kts
25-Sep-20 07:34 33.273015 -111.908583 98 3287ft 90kts
25-Sep-20 07:35 33.268837 -111.879058 100 2770ft 89kts
25-Sep-20 07:36 33.255140 -111.856382 142 2310ft 84kts
25-Sep-20 07:37 33.254456 -111.832977 47 1626ft 76kts
25-Sep-20 07:38 33.267322 -111.815465 49 1232ft 43kts
25-Sep-20 07:39 33.269070 -111.813870 316 1233ft 0kts
25-Sep-20 07:40 33.269669 -111.814871 203 1233ft 7kts
25-Sep-20 07:41 33.269179 -111.814975 180 1233ft 0kts
25-Sep-20 07:42 33.269179 -111.814975 180 1233ft 0kts

Navigation Log

Ident Type
Flight plan parsing failed, navigation log unavailable